Surface observations / Europe / LICJ

Quebec | Canada | USA | France | UK | Europe | Elsewhere

Display: Info & Location for LICJ | Help decoding METAR

LICJ PALERMO/POINT RAISI -- IY
Raw surface observations for station LICJ
LICJ 241320Z 26010KT CAVOK 18/14 Q1017=
LICJ 241250Z 26010KT 9999 FEW025 17/14 Q1017=
LICJ 241220Z 26009KT 9999 FEW025 17/14 Q1017=
LICJ 241150Z 25008KT 9999 FEW025 18/14 Q1017=
LICJ 241120Z 24007KT 9999 FEW025 18/14 Q1017=
LICJ 241050Z 26009KT 9999 FEW022 17/14 Q1017=
LICJ 241020Z 25008KT 9999 FEW025 17/14 Q1017=
LICJ 240950Z 24007KT 9999 FEW022 18/14 Q1017=
LICJ 240920Z 24007KT 200V260 9999 FEW025 18/14 Q1017=
LICJ 240850Z 22006KT 190V260 9999 FEW025 18/14 Q1017=
LICJ 240820Z 24006KT 9999 FEW025 17/14 Q1017=
LICJ 240750Z 25007KT 9999 FEW022 17/14 Q1017=
LICJ 240720Z 23007KT 9999 FEW022 SCT055 17/14 Q1017=
LICJ 240650Z 20007KT 170V240 9999 FEW022 SCT055 17/13 Q1017=
LICJ 240620Z 20008KT 170V230 9999 FEW022 18/14 Q1016=
LICJ 240550Z 20007KT 9999 SCT050 16/13 Q1016=
LICJ 240520Z 17007KT 9999 FEW022 16/13 Q1016=
LICJ 240450Z 18008KT 150V220 CAVOK 16/13 Q1016=
LICJ 240420Z 18008KT 160V220 CAVOK 16/13 Q1016=
LICJ 240350Z 19007KT CAVOK 15/13 Q1015=
LICJ 240320Z 18009KT 9999 FEW016 SCT035 15/13 Q1015=
LICJ 240250Z 17010KT CAVOK 15/13 Q1015=
LICJ 240220Z 16009KT CAVOK 15/13 Q1015=
LICJ 240150Z 17009KT CAVOK 15/13 Q1016=
LICJ 240120Z 16009KT 9999 SCT020 SCT030 15/14 Q1016=
LICJ 240050Z 17009KT 9999 SCT018 SCT030 15/14 Q1016=
LICJ 240020Z 19007KT 9999 SCT018 SCT030 15/14 Q1016=
LICJ 232350Z 20006KT 180V250 9999 SCT015 SCT030 15/14 Q1016=
LICJ 232320Z 19006KT 9999 SCT018 SCT030 15/14 Q1016=
LICJ 232250Z 23006KT 9999 SCT018 BKN030 16/14 Q1016=
LICJ 232220Z 25007KT 9999 SCT018 BKN030 16/15 Q1016=
LICJ 232150Z 26010KT 9999 SCT015 BKN030 16/15 Q1016=
LICJ 232120Z 23008KT 9999 SCT015 BKN030 16/15 Q1016=
LICJ 232050Z 26010KT 9999 SCT013 BKN020 16/15 Q1016=
LICJ 232020Z 28010KT 9999 SCT013 BKN020 16/15 Q1016=
LICJ 231950Z 28010KT 9999 SCT013 BKN020 16/15 Q1016=
LICJ 231920Z 28010KT 9999 SCT013 BKN020 16/15 Q1016=
LICJ 231850Z 29012KT 9999 SCT018 BKN030 16/15 Q1015=
LICJ 231820Z 29009KT 9999 SCT012 BKN030 16/15 Q1015=
LICJ 231750Z 29011KT 9999 SCT013 BKN020 16/15 Q1014=
LICJ 231720Z 29013KT 9999 FEW013 BKN020 16/15 Q1014=
LICJ 231650Z 30013KT 9999 SCT013 BKN022 16/15 Q1014=
LICJ 231620Z 29013KT 9999 SCT012 BKN020 16/15 Q1014=
LICJ 231550Z 29010KT 9999 SCT010 BKN018 16/15 Q1014=
LICJ 231520Z 30010KT 9999 SCT010 BKN020 17/15 Q1013=
LICJ 231450Z 32008KT 9999 SCT012 17/16 Q1013=
LICJ 231420Z 32012KT 9999 SCT008 SCT035 17/16 Q1013=
LICJ 231350Z 31013KT 9999 SCT007 BKN030 16/16 Q1013=
LICJ 231320Z 32011KT 8000 SCT008 SCT025 17/16 Q1013=